createdAt,value
2022-08-03T00:00:25.664Z,20.01
2022-08-03T00:03:02.751Z,19.97
2022-08-03T00:05:29.443Z,19.94
2022-08-03T00:07:56.047Z,19.90
2022-08-03T00:10:22.832Z,19.88
2022-08-03T00:12:50.272Z,19.86
2022-08-03T00:15:17.192Z,19.85
2022-08-03T00:17:53.066Z,19.83
2022-08-03T00:20:24.335Z,19.81
2022-08-03T00:22:51.802Z,19.79
2022-08-03T00:25:18.769Z,19.80
2022-08-03T00:27:45.363Z,19.81
2022-08-03T00:30:12.164Z,19.82
2022-08-03T00:32:45.007Z,19.83
2022-08-03T00:35:18.231Z,19.80
2022-08-03T00:37:54.145Z,19.78
2022-08-03T00:40:21.698Z,19.78
2022-08-03T00:42:54.161Z,19.81
2022-08-03T00:45:23.516Z,19.85
2022-08-03T00:47:50.179Z,19.89
2022-08-03T00:50:18.582Z,19.89
2022-08-03T00:52:46.649Z,19.90
2022-08-03T00:55:14.057Z,19.94
2022-08-03T00:57:42.279Z,19.96
2022-08-03T01:00:11.626Z,19.97
2022-08-03T01:02:39.470Z,20.03
2022-08-03T01:05:08.498Z,20.09
2022-08-03T01:07:50.424Z,20.14
2022-08-03T01:10:28.111Z,20.16
2022-08-03T01:14:01.334Z,20.12
2022-08-03T01:16:55.080Z,20.04
2022-08-03T01:19:24.513Z,19.97
2022-08-03T01:22:21.476Z,19.94
2022-08-03T01:25:25.784Z,19.89
2022-08-03T01:28:20.211Z,19.84
2022-08-03T01:30:48.216Z,19.78
2022-08-03T01:33:23.740Z,19.74
2022-08-03T01:35:58.606Z,19.68
2022-08-03T01:38:41.486Z,19.63
2022-08-03T01:41:13.159Z,19.60
2022-08-03T01:44:27.726Z,19.57
2022-08-03T01:46:32.950Z,19.54
2022-08-03T01:49:09.242Z,19.51
2022-08-03T01:52:03.301Z,19.48
2022-08-03T01:54:30.134Z,19.45
2022-08-03T01:56:59.019Z,19.42
2022-08-03T01:59:28.560Z,19.38
2022-08-03T02:02:32.413Z,19.34
2022-08-03T02:05:02.998Z,19.26
2022-08-03T02:07:32.553Z,19.20
2022-08-03T02:10:00.895Z,19.15
2022-08-03T02:12:32.043Z,19.11
2022-08-03T02:15:00.954Z,19.07
2022-08-03T02:17:38.586Z,19.03
2022-08-03T02:20:12.972Z,18.98
2022-08-03T02:22:41.424Z,18.94
2022-08-03T02:25:10.741Z,18.91
2022-08-03T02:27:43.852Z,18.89
2022-08-03T02:30:13.224Z,18.84
2022-08-03T02:32:43.391Z,18.81
2022-08-03T02:35:12.969Z,18.77
2022-08-03T02:37:49.812Z,18.73
2022-08-03T02:40:19.900Z,18.70
2022-08-03T02:42:51.032Z,18.67
2022-08-03T02:45:19.747Z,18.68
2022-08-03T02:47:54.017Z,18.71
2022-08-03T02:50:23.945Z,18.73
2022-08-03T02:52:52.730Z,18.76
2022-08-03T02:55:22.319Z,18.82
2022-08-03T02:57:51.018Z,18.88
2022-08-03T03:00:28.089Z,18.93
2022-08-03T03:02:58.446Z,18.96
2022-08-03T03:05:52.602Z,18.99
2022-08-03T03:08:17.713Z,19.00
2022-08-03T03:10:46.756Z,19.01
2022-08-03T03:13:15.590Z,19.01
2022-08-03T03:15:44.686Z,18.99
2022-08-03T03:18:12.310Z,18.98
2022-08-03T03:20:40.389Z,18.97
2022-08-03T03:23:08.773Z,18.95
2022-08-03T03:25:36.566Z,18.93
2022-08-03T03:28:06.228Z,18.89
2022-08-03T03:30:34.170Z,18.84
2022-08-03T03:33:02.219Z,18.77
2022-08-03T03:35:30.881Z,18.71
2022-08-03T03:38:06.133Z,18.66
2022-08-03T03:40:35.076Z,18.63
2022-08-03T03:43:02.731Z,18.60
2022-08-03T03:45:31.180Z,18.57
2022-08-03T03:48:01.144Z,18.54
2022-08-03T03:50:29.552Z,18.52
2022-08-03T03:52:56.172Z,18.48
2022-08-03T03:55:23.196Z,18.43
2022-08-03T03:57:50.327Z,18.39
2022-08-03T04:00:18.443Z,18.35
2022-08-03T04:02:45.697Z,18.31
2022-08-03T04:05:31.805Z,18.26
2022-08-03T04:08:19.914Z,18.22
2022-08-03T04:11:01.942Z,18.18
2022-08-03T04:13:36.373Z,18.15
2022-08-03T04:16:04.824Z,18.13
2022-08-03T04:18:34.724Z,18.12
2022-08-03T04:21:04.106Z,18.13
2022-08-03T04:23:35.069Z,18.14
2022-08-03T04:26:03.563Z,18.15
2022-08-03T04:28:32.879Z,18.19
2022-08-03T04:31:03.025Z,18.22
2022-08-03T04:33:33.029Z,18.27
2022-08-03T04:36:06.340Z,18.33
2022-08-03T04:38:38.491Z,18.41
2022-08-03T04:41:07.168Z,18.48
2022-08-03T04:43:34.791Z,18.54
2022-08-03T04:46:03.947Z,18.61
2022-08-03T04:48:30.857Z,18.66
2022-08-03T04:50:57.746Z,18.74
2022-08-03T04:53:24.534Z,18.85
2022-08-03T04:55:51.252Z,18.94
2022-08-03T04:58:17.898Z,19.00
2022-08-03T05:00:44.965Z,19.02
2022-08-03T05:03:23.575Z,19.02
2022-08-03T05:06:01.887Z,19.00
2022-08-03T05:08:36.888Z,18.98
2022-08-03T05:11:17.228Z,18.94
2022-08-03T05:13:45.441Z,18.92
2022-08-03T05:16:13.404Z,18.90
2022-08-03T05:18:41.663Z,18.89
2022-08-03T05:21:09.827Z,18.88
2022-08-03T05:23:37.372Z,18.86
2022-08-03T05:26:04.329Z,18.84
2022-08-03T05:28:31.003Z,18.81
2022-08-03T05:30:57.672Z,18.80
2022-08-03T05:33:24.259Z,18.78
2022-08-03T05:35:56.016Z,18.77
2022-08-03T05:38:34.895Z,18.77
2022-08-03T05:41:21.960Z,18.76
2022-08-03T05:43:54.804Z,18.76
2022-08-03T05:46:22.479Z,18.81
2022-08-03T05:48:49.533Z,18.88
2022-08-03T05:51:16.960Z,18.96
2022-08-03T05:53:43.834Z,19.03
2022-08-03T05:56:13.758Z,19.09
2022-08-03T05:58:44.014Z,19.14
2022-08-03T06:01:11.234Z,19.19
2022-08-03T06:03:38.054Z,19.24
2022-08-03T06:06:05.536Z,19.31
2022-08-03T06:08:35.003Z,19.38
2022-08-03T06:11:02.077Z,19.46
2022-08-03T06:13:31.195Z,19.56
2022-08-03T06:15:58.555Z,19.66
2022-08-03T06:18:26.508Z,19.77
2022-08-03T06:20:53.882Z,19.90
2022-08-03T06:23:25.304Z,20.01
2022-08-03T06:26:10.137Z,20.14
2022-08-03T06:28:51.544Z,20.28
2022-08-03T06:31:24.339Z,20.40
2022-08-03T06:34:34.877Z,20.55
2022-08-03T06:36:39.585Z,20.67
2022-08-03T06:39:08.221Z,20.79
2022-08-03T06:41:37.554Z,20.89
2022-08-03T06:44:08.564Z,20.98
2022-08-03T06:46:38.274Z,21.07
2022-08-03T06:49:07.721Z,21.15
2022-08-03T06:52:04.117Z,21.22
2022-08-03T06:54:33.247Z,21.27
2022-08-03T06:57:00.800Z,21.31
2022-08-03T07:00:08.706Z,21.35
2022-08-03T07:02:19.079Z,21.41
2022-08-03T07:04:49.855Z,21.46
2022-08-03T07:07:18.386Z,21.51
2022-08-03T07:09:57.193Z,21.56
2022-08-03T07:12:29.197Z,21.62
2022-08-03T07:15:00.741Z,21.66
2022-08-03T07:17:30.498Z,21.71
2022-08-03T07:19:57.915Z,21.77
2022-08-03T07:22:25.160Z,21.84
2022-08-03T07:24:51.853Z,21.89
2022-08-03T07:27:18.717Z,21.94
2022-08-03T07:29:45.513Z,21.98
2022-08-03T07:32:33.128Z,22.03
2022-08-03T07:35:25.057Z,22.13
2022-08-03T07:38:52.755Z,22.22
2022-08-03T07:42:40.318Z,22.36
2022-08-03T07:45:27.781Z,22.49
2022-08-03T07:49:16.587Z,22.61
2022-08-03T07:53:08.148Z,22.76
2022-08-03T07:57:00.750Z,22.93
2022-08-03T08:00:30.562Z,23.07
2022-08-03T08:03:57.692Z,23.16
2022-08-03T08:07:12.879Z,23.19
2022-08-03T08:10:59.228Z,23.26
2022-08-03T08:14:27.826Z,23.35
2022-08-03T08:17:57.323Z,23.41
2022-08-03T08:21:24.153Z,23.48
2022-08-03T08:25:09.889Z,23.55
2022-08-03T08:28:40.992Z,23.64
2022-08-03T08:32:08.212Z,23.76
2022-08-03T08:35:54.888Z,23.91
2022-08-03T08:39:41.161Z,24.05
2022-08-03T08:42:58.833Z,24.14
2022-08-03T08:46:05.240Z,24.21
2022-08-03T08:49:32.698Z,24.24
2022-08-03T08:53:01.092Z,24.35
2022-08-03T08:56:47.661Z,24.53
2022-08-03T09:00:34.041Z,24.68
2022-08-03T09:04:03.354Z,24.86
2022-08-03T09:07:30.399Z,25.00
2022-08-03T09:10:58.771Z,25.12
2022-08-03T09:14:39.413Z,25.20
2022-08-03T09:18:33.516Z,25.35
2022-08-03T09:22:23.269Z,25.45
2022-08-03T09:26:19.401Z,25.45
2022-08-03T09:29:27.273Z,25.51
2022-08-03T09:32:24.540Z,25.59
2022-08-03T09:35:54.869Z,25.60
2022-08-03T09:38:28.008Z,25.74
2022-08-03T09:41:28.693Z,25.81
2022-08-03T09:44:37.311Z,25.86
2022-08-03T09:47:50.462Z,26.01
2022-08-03T09:50:37.941Z,26.16
2022-08-03T09:54:20.395Z,26.30
2022-08-03T09:57:39.509Z,26.47
2022-08-03T10:00:51.037Z,26.55
2022-08-03T10:04:03.847Z,26.62
2022-08-03T10:06:40.668Z,26.77
2022-08-03T10:09:31.857Z,26.81
2022-08-03T10:12:36.074Z,26.81
2022-08-03T10:16:22.545Z,26.78
2022-08-03T10:20:11.255Z,26.79
2022-08-03T10:23:58.249Z,26.91
2022-08-03T10:27:17.116Z,27.02
2022-08-03T10:30:31.475Z,27.06
2022-08-03T10:33:57.373Z,27.17
2022-08-03T10:36:48.706Z,27.38
2022-08-03T10:39:20.443Z,27.53
2022-08-03T10:41:59.939Z,27.57
2022-08-03T10:45:35.866Z,27.54
2022-08-03T10:48:30.591Z,27.34
2022-08-03T10:51:41.836Z,27.18
2022-08-03T10:54:58.229Z,27.24
2022-08-03T10:57:50.056Z,27.44
2022-08-03T11:00:50.616Z,27.65
2022-08-03T11:03:19.081Z,27.76
2022-08-03T11:05:48.914Z,27.70
2022-08-03T11:08:28.323Z,27.64
2022-08-03T11:10:57.822Z,27.62
2022-08-03T11:13:27.866Z,27.74
2022-08-03T11:16:03.829Z,27.82
2022-08-03T11:18:32.963Z,27.75
2022-08-03T11:21:00.782Z,27.77
2022-08-03T11:24:02.729Z,27.86
2022-08-03T11:26:30.856Z,28.04
2022-08-03T11:29:29.386Z,28.18
2022-08-03T11:31:56.895Z,28.34
2022-08-03T11:34:24.492Z,28.38
2022-08-03T11:37:27.580Z,28.29
2022-08-03T11:39:58.420Z,28.23
2022-08-03T11:42:26.508Z,28.34
2022-08-03T11:44:55.687Z,28.53
2022-08-03T11:47:26.902Z,28.74
2022-08-03T11:49:58.875Z,28.81
2022-08-03T11:52:28.970Z,28.76
2022-08-03T11:54:56.955Z,28.80
2022-08-03T11:59:01.306Z,28.92
2022-08-03T12:00:30.588Z,29.13
2022-08-03T12:03:00.371Z,29.24
2022-08-03T12:05:51.529Z,29.26
2022-08-03T12:08:28.146Z,29.40
2022-08-03T12:11:06.128Z,29.42
2022-08-03T12:14:44.982Z,29.46
2022-08-03T12:16:34.854Z,29.60
2022-08-03T12:19:06.244Z,29.63
2022-08-03T12:21:33.641Z,29.50
2022-08-03T12:24:03.618Z,29.50
2022-08-03T12:26:58.705Z,29.45
2022-08-03T12:29:28.191Z,29.23
2022-08-03T12:31:58.390Z,29.01
2022-08-03T12:34:48.198Z,28.95
2022-08-03T12:37:29.349Z,29.08
2022-08-03T12:40:09.416Z,29.16
2022-08-03T12:42:39.599Z,29.09
2022-08-03T12:45:27.758Z,29.15
2022-08-03T12:48:00.051Z,29.20
2022-08-03T12:50:34.969Z,29.14
2022-08-03T12:53:07.890Z,29.22
2022-08-03T12:55:57.586Z,29.40
2022-08-03T12:58:35.646Z,29.48
2022-08-03T13:01:05.225Z,29.31
2022-08-03T13:03:46.041Z,29.02
2022-08-03T13:06:19.622Z,28.72
2022-08-03T13:08:47.567Z,28.51
2022-08-03T13:11:22.058Z,28.38
2022-08-03T13:13:50.535Z,28.38
2022-08-03T13:16:19.487Z,28.49
2022-08-03T13:18:46.598Z,28.56
2022-08-03T13:21:16.499Z,28.59
2022-08-03T13:23:43.624Z,28.43
2022-08-03T13:26:11.670Z,28.27
2022-08-03T13:28:39.340Z,28.28
2022-08-03T13:31:07.106Z,28.36
2022-08-03T13:33:33.854Z,28.35
2022-08-03T13:36:00.560Z,28.18
2022-08-03T13:38:27.437Z,27.99
2022-08-03T13:40:55.350Z,27.87
2022-08-03T13:43:22.715Z,27.82
2022-08-03T13:45:53.596Z,27.91
2022-08-03T13:48:37.318Z,28.07
2022-08-03T13:51:11.844Z,28.26
2022-08-03T13:53:51.856Z,28.47
2022-08-03T13:56:19.427Z,28.61
2022-08-03T13:58:46.998Z,28.70
2022-08-03T14:01:13.769Z,28.72
2022-08-03T14:03:41.486Z,28.80
2022-08-03T14:06:08.167Z,28.98
2022-08-03T14:08:34.913Z,29.12
2022-08-03T14:11:01.729Z,29.08
2022-08-03T14:13:38.430Z,29.02
2022-08-03T14:16:05.535Z,29.03
2022-08-03T14:18:36.891Z,29.02
2022-08-03T14:21:08.520Z,28.92
2022-08-03T14:23:37.383Z,28.71
2022-08-03T14:26:08.133Z,28.49
2022-08-03T14:28:35.515Z,28.35
2022-08-03T14:31:02.530Z,28.34
2022-08-03T14:33:29.311Z,28.42
2022-08-03T14:35:56.625Z,28.50
2022-08-03T14:38:24.469Z,28.49
2022-08-03T14:40:52.611Z,28.42
2022-08-03T14:43:22.000Z,28.40
2022-08-03T14:45:53.075Z,28.46
2022-08-03T14:50:29.226Z,28.47
2022-08-03T14:51:07.719Z,28.43
2022-08-03T14:53:34.530Z,28.37
2022-08-03T14:56:02.532Z,28.34
2022-08-03T14:58:31.492Z,28.40
2022-08-03T15:00:58.422Z,28.49
2022-08-03T15:03:25.421Z,28.55
2022-08-03T15:05:53.296Z,28.60
2022-08-03T15:08:20.828Z,28.67
2022-08-03T15:10:49.825Z,28.71
2022-08-03T15:13:19.677Z,28.75
2022-08-03T15:15:49.323Z,28.82
2022-08-03T15:18:16.067Z,28.85
2022-08-03T15:20:46.021Z,28.86
2022-08-03T15:23:14.978Z,28.79
2022-08-03T15:26:07.030Z,28.67
2022-08-03T15:28:30.864Z,28.53
2022-08-03T15:30:58.080Z,28.40
2022-08-03T15:33:24.820Z,28.43
2022-08-03T15:35:52.439Z,28.51
2022-08-03T15:38:19.615Z,28.47
2022-08-03T15:40:46.253Z,28.39
2022-08-03T15:43:13.037Z,28.42
2022-08-03T15:45:39.989Z,28.47
2022-08-03T15:48:06.668Z,28.50
2022-08-03T15:50:33.315Z,28.51
2022-08-03T15:53:00.037Z,28.48
2022-08-03T15:55:26.736Z,28.37
2022-08-03T15:59:04.635Z,28.34
2022-08-03T16:00:41.575Z,28.31
2022-08-03T16:03:08.743Z,28.33
2022-08-03T16:05:35.950Z,28.40
2022-08-03T16:08:04.357Z,28.46
2022-08-03T16:10:32.331Z,28.51
2022-08-03T16:12:59.402Z,28.43
2022-08-03T16:15:26.002Z,28.40
2022-08-03T16:17:52.644Z,28.47
2022-08-03T16:20:34.269Z,28.45
2022-08-03T16:23:08.509Z,28.32
2022-08-03T16:25:40.363Z,28.27
2022-08-03T16:28:13.988Z,28.35
2022-08-03T16:30:43.601Z,28.34
2022-08-03T16:33:11.600Z,28.35
2022-08-03T16:35:44.640Z,28.31
2022-08-03T16:38:15.203Z,28.23
2022-08-03T16:40:46.479Z,28.10
2022-08-03T16:43:18.750Z,27.95
2022-08-03T16:45:46.908Z,27.78
2022-08-03T16:48:14.783Z,27.57
2022-08-03T16:50:41.507Z,27.40
2022-08-03T16:53:10.150Z,27.27
2022-08-03T16:55:53.302Z,27.14
2022-08-03T16:58:34.607Z,27.04
2022-08-03T17:01:20.791Z,26.93
2022-08-03T17:04:02.978Z,26.81
2022-08-03T17:06:35.041Z,26.73
2022-08-03T17:09:09.056Z,26.67
2022-08-03T17:11:48.717Z,26.63
2022-08-03T17:14:17.272Z,26.58
2022-08-03T17:16:51.943Z,26.55
2022-08-03T17:19:21.397Z,26.53
2022-08-03T17:22:08.390Z,26.51
2022-08-03T17:24:41.510Z,26.46
2022-08-03T17:28:42.167Z,26.39
2022-08-03T17:30:11.991Z,26.32
2022-08-03T17:32:52.706Z,26.28
2022-08-03T17:35:36.948Z,26.24
2022-08-03T17:38:08.976Z,26.18
2022-08-03T17:40:39.700Z,26.09
2022-08-03T17:44:13.643Z,26.04
2022-08-03T17:46:07.357Z,26.00
2022-08-03T17:48:41.327Z,25.99
2022-08-03T17:51:22.882Z,25.97
2022-08-03T17:54:00.292Z,25.93
2022-08-03T17:56:56.752Z,25.86
2022-08-03T17:59:51.389Z,25.79
2022-08-03T18:03:12.349Z,25.73
2022-08-03T18:06:11.438Z,25.71
2022-08-03T18:08:38.432Z,25.70
2022-08-03T18:11:14.756Z,25.71
2022-08-03T18:13:58.698Z,25.72
2022-08-03T18:16:34.328Z,25.74
2022-08-03T18:19:09.312Z,25.76
2022-08-03T18:22:03.419Z,25.77
2022-08-03T18:24:30.035Z,25.76
2022-08-03T18:27:08.819Z,25.72
2022-08-03T18:29:40.502Z,25.71
2022-08-03T18:32:21.880Z,25.69
2022-08-03T18:34:56.036Z,25.69
2022-08-03T18:37:25.156Z,25.69
2022-08-03T18:39:55.660Z,25.70
2022-08-03T18:42:25.749Z,25.68
2022-08-03T18:44:55.882Z,25.66
2022-08-03T18:47:52.588Z,25.65
2022-08-03T18:50:39.089Z,25.63
2022-08-03T18:53:24.109Z,25.62
2022-08-03T18:56:17.625Z,25.60
2022-08-03T18:59:04.406Z,25.57
2022-08-03T19:02:01.011Z,25.55
2022-08-03T19:04:34.596Z,25.51
2022-08-03T19:07:07.887Z,25.47
2022-08-03T19:09:46.975Z,25.45
2022-08-03T19:12:30.725Z,25.42
2022-08-03T19:15:04.529Z,25.38
2022-08-03T19:17:39.700Z,25.35
2022-08-03T19:20:08.639Z,25.31
2022-08-03T19:22:39.173Z,25.27
2022-08-03T19:25:12.597Z,25.23
2022-08-03T19:27:39.878Z,25.20
2022-08-03T19:35:13.299Z,25.12
2022-08-03T19:42:39.612Z,25.00
2022-08-03T19:59:30.114Z,24.68
2022-08-03T20:06:26.731Z,24.56
2022-08-03T20:13:52.079Z,24.42
2022-08-03T20:20:58.845Z,24.31
2022-08-03T20:28:50.588Z,24.22
2022-08-03T20:31:20.843Z,24.17
2022-08-03T20:34:11.342Z,24.14
2022-08-03T20:36:44.360Z,24.11
2022-08-03T20:39:13.344Z,24.08
2022-08-03T20:41:40.887Z,24.04
2022-08-03T20:44:08.655Z,24.01
2022-08-03T20:46:53.323Z,23.98
2022-08-03T20:49:29.175Z,23.94
2022-08-03T20:52:18.884Z,23.91
2022-08-03T20:54:50.981Z,23.89
2022-08-03T20:57:19.395Z,23.85
2022-08-03T20:59:50.323Z,23.82
2022-08-03T21:02:29.588Z,23.79
2022-08-03T21:05:03.299Z,23.76
2022-08-03T21:08:16.254Z,23.71
2022-08-03T21:10:53.771Z,23.66
2022-08-03T21:14:13.560Z,23.60
2022-08-03T21:16:45.715Z,23.55
2022-08-03T21:19:16.414Z,23.52
2022-08-03T21:22:08.189Z,23.49
2022-08-03T21:25:43.218Z,23.44
2022-08-03T21:29:14.597Z,23.38
2022-08-03T21:33:02.212Z,23.34
2022-08-03T21:36:49.744Z,23.25
2022-08-03T21:40:37.300Z,23.18
2022-08-03T21:44:28.752Z,23.10
2022-08-03T21:48:16.640Z,23.00
2022-08-03T21:52:04.283Z,22.90
2022-08-03T21:55:51.911Z,22.82
2022-08-03T21:59:44.882Z,22.73
2022-08-03T22:03:33.119Z,22.60
2022-08-03T22:07:40.775Z,22.49
2022-08-03T22:11:28.368Z,22.39
2022-08-03T22:15:16.012Z,22.29
2022-08-03T22:19:03.531Z,22.21
2022-08-03T22:22:54.962Z,22.11
2022-08-03T22:26:43.385Z,22.07
2022-08-03T22:30:30.946Z,22.03
2022-08-03T22:34:01.880Z,22.00
2022-08-03T22:37:49.369Z,21.97
2022-08-03T22:41:40.286Z,21.92
2022-08-03T22:46:06.139Z,21.84
2022-08-03T22:49:35.362Z,21.75
2022-08-03T22:52:59.493Z,21.72
2022-08-03T22:55:27.059Z,21.69
2022-08-03T22:58:25.707Z,21.67
2022-08-03T23:01:18.164Z,21.62
2022-08-03T23:04:00.592Z,21.58
2022-08-03T23:06:38.056Z,21.54
2022-08-03T23:09:10.805Z,21.51
2022-08-03T23:11:45.253Z,21.49
2022-08-03T23:14:15.694Z,21.46
2022-08-03T23:16:44.614Z,21.43
2022-08-03T23:19:17.418Z,21.39
2022-08-03T23:22:02.226Z,21.34
2022-08-03T23:24:35.441Z,21.29
2022-08-03T23:27:07.162Z,21.26
2022-08-03T23:29:39.536Z,21.23
2022-08-03T23:32:06.962Z,21.19
2022-08-03T23:34:52.520Z,21.17
2022-08-03T23:37:22.241Z,21.12
2022-08-03T23:39:49.393Z,21.09
2022-08-03T23:42:18.566Z,21.05
2022-08-03T23:44:46.916Z,21.01
2022-08-03T23:47:14.258Z,20.98
2022-08-03T23:49:41.139Z,20.94
2022-08-03T23:52:29.303Z,20.90
2022-08-03T23:55:34.401Z,20.85
2022-08-03T23:58:22.485Z,20.80
